sensor_id;sensor_type;location;lat;lon;timestamp;pressure;altitude;pressure_sealevel;temperature;humidity
13765;BME280;6953;48.810;9.204;2023-02-18T00:00:08;99661.16;;;15.31;78.82
13765;BME280;6953;48.810;9.204;2023-02-18T00:02:33;99659.44;;;15.30;79.30
13765;BME280;6953;48.810;9.204;2023-02-18T00:04:59;99660.31;;;15.30;78.89
13765;BME280;6953;48.810;9.204;2023-02-18T00:07:24;99609.53;;;14.93;79.03
13765;BME280;6953;48.810;9.204;2023-02-18T00:09:50;99662.09;;;15.30;79.48
13765;BME280;6953;48.810;9.204;2023-02-18T00:12:15;99689.50;;;15.29;79.31
13765;BME280;6953;48.810;9.204;2023-02-18T00:14:40;99424.50;;;13.86;79.64
13765;BME280;6953;48.810;9.204;2023-02-18T00:17:06;99579.63;;;14.77;79.78
13765;BME280;6953;48.810;9.204;2023-02-18T00:19:31;99586.34;;;14.82;79.09
13765;BME280;6953;48.810;9.204;2023-02-18T00:21:56;99655.25;;;15.10;79.80
13765;BME280;6953;48.810;9.204;2023-02-18T00:24:22;99631.91;;;15.03;79.99
13765;BME280;6953;48.810;9.204;2023-02-18T00:26:52;99646.28;;;15.13;79.47
13765;BME280;6953;48.810;9.204;2023-02-18T00:29:18;99646.38;;;15.11;79.64
13765;BME280;6953;48.810;9.204;2023-02-18T00:31:44;99683.91;;;15.18;79.83
13765;BME280;6953;48.810;9.204;2023-02-18T00:34:10;99679.38;;;15.20;79.60
13765;BME280;6953;48.810;9.204;2023-02-18T00:36:36;99516.63;;;14.39;79.69
13765;BME280;6953;48.810;9.204;2023-02-18T00:39:06;99661.41;;;15.26;79.91
13765;BME280;6953;48.810;9.204;2023-02-18T00:41:32;99650.13;;;15.07;79.74
13765;BME280;6953;48.810;9.204;2023-02-18T00:43:58;99653.78;;;15.20;80.03
13765;BME280;6953;48.810;9.204;2023-02-18T00:46:24;99638.78;;;15.21;80.48
13765;BME280;6953;48.810;9.204;2023-02-18T00:48:50;99380.44;;;13.73;80.30
13765;BME280;6953;48.810;9.204;2023-02-18T00:51:15;99645.28;;;15.15;80.64
13765;BME280;6953;48.810;9.204;2023-02-18T00:53:41;99419.84;;;13.91;80.79
13765;BME280;6953;48.810;9.204;2023-02-18T00:56:06;99453.34;;;14.06;80.93
13765;BME280;6953;48.810;9.204;2023-02-18T00:58:33;99604.63;;;14.87;80.93
13765;BME280;6953;48.810;9.204;2023-02-18T01:00:58;99614.00;;;15.08;81.01
13765;BME280;6953;48.810;9.204;2023-02-18T01:03:24;99471.84;;;14.22;80.89
13765;BME280;6953;48.810;9.204;2023-02-18T01:05:50;99479.75;;;14.22;81.11
13765;BME280;6953;48.810;9.204;2023-02-18T01:08:17;99445.31;;;14.08;80.49
13765;BME280;6953;48.810;9.204;2023-02-18T01:10:45;99622.16;;;15.03;80.93
13765;BME280;6953;48.810;9.204;2023-02-18T01:13:12;99611.84;;;14.99;80.40
13765;BME280;6953;48.810;9.204;2023-02-18T01:15:38;99620.13;;;15.08;80.88
13765;BME280;6953;48.810;9.204;2023-02-18T01:18:04;99606.47;;;15.00;80.56
13765;BME280;6953;48.810;9.204;2023-02-18T01:20:30;99621.94;;;15.08;80.65
13765;BME280;6953;48.810;9.204;2023-02-18T01:22:55;99647.59;;;15.06;80.53
13765;BME280;6953;48.810;9.204;2023-02-18T01:25:21;99666.09;;;15.06;80.53
13765;BME280;6953;48.810;9.204;2023-02-18T01:27:46;99552.25;;;14.62;80.65
13765;BME280;6953;48.810;9.204;2023-02-18T01:30:14;99355.25;;;13.52;80.33
13765;BME280;6953;48.810;9.204;2023-02-18T01:32:40;99400.19;;;13.81;80.53
13765;BME280;6953;48.810;9.204;2023-02-18T01:35:06;99614.41;;;15.00;80.49
13765;BME280;6953;48.810;9.204;2023-02-18T01:37:32;99601.38;;;14.97;80.54
13765;BME280;6953;48.810;9.204;2023-02-18T01:39:58;99478.31;;;14.16;80.81
13765;BME280;6953;48.810;9.204;2023-02-18T01:42:26;99612.78;;;14.82;81.14
13765;BME280;6953;48.810;9.204;2023-02-18T01:48:18;99605.34;;;14.58;82.32
13765;BME280;6953;48.810;9.204;2023-02-18T01:50:50;99351.00;;;13.00;82.64
13765;BME280;6953;48.810;9.204;2023-02-18T01:53:26;99624.72;;;14.42;83.26
13765;BME280;6953;48.810;9.204;2023-02-18T01:55:52;99359.78;;;13.01;83.22
13765;BME280;6953;48.810;9.204;2023-02-18T01:58:18;99353.41;;;13.05;82.53
13765;BME280;6953;48.810;9.204;2023-02-18T02:00:44;99371.84;;;13.22;82.32
13765;BME280;6953;48.810;9.204;2023-02-18T02:03:09;99581.13;;;14.50;82.32
13765;BME280;6953;48.810;9.204;2023-02-18T02:05:35;99580.81;;;14.56;82.00
13765;BME280;6953;48.810;9.204;2023-02-18T02:08:01;99626.34;;;14.76;81.86
13765;BME280;6953;48.810;9.204;2023-02-18T02:10:55;99580.81;;;14.71;81.72
13765;BME280;6953;48.810;9.204;2023-02-18T02:13:37;99599.66;;;14.81;81.49
13765;BME280;6953;48.810;9.204;2023-02-18T02:16:17;99585.50;;;14.66;81.49
13765;BME280;6953;48.810;9.204;2023-02-18T02:18:52;99609.19;;;14.83;81.41
13765;BME280;6953;48.810;9.204;2023-02-18T02:24:11;99633.69;;;14.87;80.83
13765;BME280;6953;48.810;9.204;2023-02-18T02:32:16;99595.56;;;14.75;81.05
13765;BME280;6953;48.810;9.204;2023-02-18T02:40:42;99591.41;;;14.87;80.26
13765;BME280;6953;48.810;9.204;2023-02-18T02:46:10;99570.75;;;14.62;80.28
13765;BME280;6953;48.810;9.204;2023-02-18T02:49:02;99518.94;;;14.45;80.81
13765;BME280;6953;48.810;9.204;2023-02-18T02:54:12;99588.06;;;14.83;80.62
13765;BME280;6953;48.810;9.204;2023-02-18T02:56:38;99322.97;;;13.32;80.12
13765;BME280;6953;48.810;9.204;2023-02-18T02:59:08;99500.78;;;14.39;80.13
13765;BME280;6953;48.810;9.204;2023-02-18T03:10:31;99576.72;;;14.81;80.44
13765;BME280;6953;48.810;9.204;2023-02-18T03:15:56;99585.94;;;14.74;80.78
13765;BME280;6953;48.810;9.204;2023-02-18T03:18:35;99601.97;;;14.71;80.86
13765;BME280;6953;48.810;9.204;2023-02-18T03:21:21;99568.56;;;14.70;80.52
13765;BME280;6953;48.810;9.204;2023-02-18T03:24:01;99324.00;;;13.29;80.51
13765;BME280;6953;48.810;9.204;2023-02-18T03:26:29;99568.81;;;14.66;80.81
13765;BME280;6953;48.810;9.204;2023-02-18T03:28:59;99486.75;;;14.23;80.82
13765;BME280;6953;48.810;9.204;2023-02-18T03:31:27;99505.66;;;14.31;80.66
13765;BME280;6953;48.810;9.204;2023-02-18T03:34:08;99557.13;;;14.55;81.16
13765;BME280;6953;48.810;9.204;2023-02-18T03:36:35;99312.22;;;13.04;81.01
13765;BME280;6953;48.810;9.204;2023-02-18T03:39:08;99481.75;;;14.01;81.50
13765;BME280;6953;48.810;9.204;2023-02-18T03:41:35;99554.94;;;14.30;81.99
13765;BME280;6953;48.810;9.204;2023-02-18T03:44:04;99548.91;;;14.28;82.20
13765;BME280;6953;48.810;9.204;2023-02-18T03:46:31;99475.06;;;13.79;82.41
13765;BME280;6953;48.810;9.204;2023-02-18T03:48:56;99349.06;;;12.87;82.44
13765;BME280;6953;48.810;9.204;2023-02-18T03:51:21;99545.81;;;13.88;83.42
13765;BME280;6953;48.810;9.204;2023-02-18T03:53:47;99480.31;;;13.30;84.11
13765;BME280;6953;48.810;9.204;2023-02-18T03:56:13;99560.94;;;13.50;85.46
13765;BME280;6953;48.810;9.204;2023-02-18T03:58:38;99313.63;;;11.91;85.45
13765;BME280;6953;48.810;9.204;2023-02-18T04:01:04;99554.81;;;13.16;87.06
13765;BME280;6953;48.810;9.204;2023-02-18T04:03:29;99543.94;;;13.05;87.40
13765;BME280;6953;48.810;9.204;2023-02-18T04:05:55;99324.56;;;11.82;87.16
13765;BME280;6953;48.810;9.204;2023-02-18T04:08:21;99567.00;;;13.19;87.61
13765;BME280;6953;48.810;9.204;2023-02-18T04:10:46;99479.53;;;12.94;87.09
13765;BME280;6953;48.810;9.204;2023-02-18T04:13:11;99312.50;;;12.13;86.37
13765;BME280;6953;48.810;9.204;2023-02-18T04:15:37;99546.66;;;13.71;85.55
13765;BME280;6953;48.810;9.204;2023-02-18T04:18:02;99549.69;;;13.81;85.08
13765;BME280;6953;48.810;9.204;2023-02-18T04:20:28;99552.69;;;13.90;85.12
13765;BME280;6953;48.810;9.204;2023-02-18T04:22:53;99321.44;;;12.61;84.62
13765;BME280;6953;48.810;9.204;2023-02-18T04:25:19;99331.09;;;12.78;84.33
13765;BME280;6953;48.810;9.204;2023-02-18T04:27:44;99533.75;;;13.99;84.39
13765;BME280;6953;48.810;9.204;2023-02-18T04:30:10;99523.00;;;13.87;84.66
13765;BME280;6953;48.810;9.204;2023-02-18T04:32:35;99530.22;;;13.83;85.34
13765;BME280;6953;48.810;9.204;2023-02-18T04:35:01;99329.19;;;12.47;85.35
13765;BME280;6953;48.810;9.204;2023-02-18T04:37:26;99534.44;;;13.53;86.34
13765;BME280;6953;48.810;9.204;2023-02-18T04:39:52;99506.09;;;13.25;86.86
13765;BME280;6953;48.810;9.204;2023-02-18T04:42:17;99451.75;;;12.70;87.45
13765;BME280;6953;48.810;9.204;2023-02-18T04:44:42;99491.34;;;12.85;87.76
13765;BME280;6953;48.810;9.204;2023-02-18T04:47:08;99388.19;;;12.25;88.14
13765;BME280;6953;48.810;9.204;2023-02-18T04:49:33;99273.09;;;11.59;88.57
13765;BME280;6953;48.810;9.204;2023-02-18T04:51:59;99428.97;;;12.52;87.98
13765;BME280;6953;48.810;9.204;2023-02-18T04:54:24;99520.63;;;12.98;88.53
13765;BME280;6953;48.810;9.204;2023-02-18T04:56:50;99546.50;;;13.07;89.18
13765;BME280;6953;48.810;9.204;2023-02-18T04:59:15;99540.81;;;12.97;89.04
13765;BME280;6953;48.810;9.204;2023-02-18T05:01:41;99549.09;;;12.90;89.45
13765;BME280;6953;48.810;9.204;2023-02-18T05:04:06;99546.03;;;12.80;89.99
13765;BME280;6953;48.810;9.204;2023-02-18T05:06:32;99310.13;;;11.35;89.99
13765;BME280;6953;48.810;9.204;2023-02-18T05:08:57;99549.97;;;12.72;89.74
13765;BME280;6953;48.810;9.204;2023-02-18T05:11:22;99541.09;;;12.56;90.58
13765;BME280;6953;48.810;9.204;2023-02-18T05:13:48;99556.59;;;12.62;90.53
13765;BME280;6953;48.810;9.204;2023-02-18T05:16:13;99572.59;;;12.57;90.88
13765;BME280;6953;48.810;9.204;2023-02-18T05:18:39;99549.91;;;12.55;90.94
13765;BME280;6953;48.810;9.204;2023-02-18T05:21:04;99556.75;;;12.59;91.27
13765;BME280;6953;48.810;9.204;2023-02-18T05:23:30;99536.75;;;12.55;91.07
13765;BME280;6953;48.810;9.204;2023-02-18T05:25:55;99548.47;;;12.66;91.44
13765;BME280;6953;48.810;9.204;2023-02-18T05:28:21;99482.63;;;12.31;91.17
13765;BME280;6953;48.810;9.204;2023-02-18T05:30:46;99295.59;;;11.28;91.00
13765;BME280;6953;48.810;9.204;2023-02-18T05:33:12;99476.06;;;12.40;90.96
13765;BME280;6953;48.810;9.204;2023-02-18T05:35:37;99464.06;;;12.34;90.43
13765;BME280;6953;48.810;9.204;2023-02-18T05:38:03;99450.22;;;12.31;90.41
13765;BME280;6953;48.810;9.204;2023-02-18T05:40:28;99537.91;;;12.85;90.38
13765;BME280;6953;48.810;9.204;2023-02-18T05:42:53;99299.91;;;11.47;89.98
13765;BME280;6953;48.810;9.204;2023-02-18T05:45:19;99451.69;;;12.36;90.42
13765;BME280;6953;48.810;9.204;2023-02-18T05:47:44;99386.09;;;11.78;90.63
13765;BME280;6953;48.810;9.204;2023-02-18T05:50:09;99536.59;;;12.58;91.12
13765;BME280;6953;48.810;9.204;2023-02-18T05:52:35;99535.25;;;12.49;91.67
13765;BME280;6953;48.810;9.204;2023-02-18T05:55:00;99536.97;;;12.50;92.08
13765;BME280;6953;48.810;9.204;2023-02-18T05:57:26;99541.44;;;12.48;92.01
13765;BME280;6953;48.810;9.204;2023-02-18T05:59:52;99514.66;;;12.57;91.70
13765;BME280;6953;48.810;9.204;2023-02-18T06:02:17;99531.53;;;12.72;91.58
13765;BME280;6953;48.810;9.204;2023-02-18T06:04:43;99516.94;;;12.65;91.39
13765;BME280;6953;48.810;9.204;2023-02-18T06:07:08;99530.75;;;12.70;91.54
13765;BME280;6953;48.810;9.204;2023-02-18T06:09:33;99564.50;;;12.62;91.55
13765;BME280;6953;48.810;9.204;2023-02-18T06:11:59;99517.94;;;12.44;91.57
13765;BME280;6953;48.810;9.204;2023-02-18T06:14:25;99326.97;;;11.49;91.74
13765;BME280;6953;48.810;9.204;2023-02-18T06:16:50;99535.94;;;12.71;91.51
13765;BME280;6953;48.810;9.204;2023-02-18T06:19:15;99570.00;;;12.74;91.34
13765;BME280;6953;48.810;9.204;2023-02-18T06:21:41;99545.34;;;12.77;91.42
13765;BME280;6953;48.810;9.204;2023-02-18T06:24:06;99284.94;;;11.31;91.32
13765;BME280;6953;48.810;9.204;2023-02-18T06:26:32;99480.97;;;12.47;90.99
13765;BME280;6953;48.810;9.204;2023-02-18T06:28:58;99534.56;;;12.81;91.32
13765;BME280;6953;48.810;9.204;2023-02-18T06:31:23;99301.97;;;11.41;91.33
13765;BME280;6953;48.810;9.204;2023-02-18T06:33:49;99538.13;;;12.80;91.13
13765;BME280;6953;48.810;9.204;2023-02-18T06:36:14;99546.03;;;12.80;91.46
13765;BME280;6953;48.810;9.204;2023-02-18T06:38:41;99534.19;;;12.89;91.46
13765;BME280;6953;48.810;9.204;2023-02-18T06:41:07;99517.78;;;12.84;91.19
13765;BME280;6953;48.810;9.204;2023-02-18T06:43:33;99466.16;;;12.63;90.66
13765;BME280;6953;48.810;9.204;2023-02-18T06:45:58;99280.91;;;11.61;90.24
13765;BME280;6953;48.810;9.204;2023-02-18T06:48:24;99539.09;;;13.15;90.50
13765;BME280;6953;48.810;9.204;2023-02-18T06:50:49;99534.34;;;13.21;89.79
13765;BME280;6953;48.810;9.204;2023-02-18T06:53:15;99541.81;;;13.30;89.93
13765;BME280;6953;48.810;9.204;2023-02-18T06:55:44;99538.84;;;13.36;89.54
13765;BME280;6953;48.810;9.204;2023-02-18T06:58:10;99394.44;;;12.58;89.51
13765;BME280;6953;48.810;9.204;2023-02-18T07:00:36;99540.09;;;13.46;89.50
13765;BME280;6953;48.810;9.204;2023-02-18T07:03:02;99259.34;;;11.90;88.71
13765;BME280;6953;48.810;9.204;2023-02-18T07:05:28;99541.03;;;13.62;88.96
13765;BME280;6953;48.810;9.204;2023-02-18T07:07:53;99531.25;;;13.64;88.42
13765;BME280;6953;48.810;9.204;2023-02-18T07:10:19;99467.63;;;13.38;87.81
13765;BME280;6953;48.810;9.204;2023-02-18T07:12:44;99541.38;;;13.88;87.69
13765;BME280;6953;48.810;9.204;2023-02-18T07:15:10;99574.25;;;13.98;87.12
13765;BME280;6953;48.810;9.204;2023-02-18T07:17:35;99529.09;;;14.04;87.09
13765;BME280;6953;48.810;9.204;2023-02-18T07:20:01;99282.47;;;12.68;86.48
13765;BME280;6953;48.810;9.204;2023-02-18T07:22:26;99542.44;;;14.18;85.73
13765;BME280;6953;48.810;9.204;2023-02-18T07:24:52;99534.00;;;14.27;85.59
13765;BME280;6953;48.810;9.204;2023-02-18T07:27:19;99540.31;;;14.25;85.48
13765;BME280;6953;48.810;9.204;2023-02-18T07:29:45;99291.50;;;12.96;85.20
13765;BME280;6953;48.810;9.204;2023-02-18T07:32:12;99346.28;;;13.39;84.72
13765;BME280;6953;48.810;9.204;2023-02-18T07:34:37;99525.50;;;14.53;84.28
13765;BME280;6953;48.810;9.204;2023-02-18T07:37:03;99533.44;;;14.53;83.57
13765;BME280;6953;48.810;9.204;2023-02-18T07:39:38;99424.44;;;14.20;83.38
13765;BME280;6953;48.810;9.204;2023-02-18T07:42:04;99504.63;;;14.79;82.93
13765;BME280;6953;48.810;9.204;2023-02-18T07:44:29;99446.44;;;14.50;82.38
13765;BME280;6953;48.810;9.204;2023-02-18T07:46:55;99376.22;;;14.17;82.28
13765;BME280;6953;48.810;9.204;2023-02-18T07:49:20;99260.91;;;13.57;81.55
13765;BME280;6953;48.810;9.204;2023-02-18T07:51:47;99484.72;;;15.03;80.94
13765;BME280;6953;48.810;9.204;2023-02-18T07:54:13;99503.94;;;15.21;80.56
13765;BME280;6953;48.810;9.204;2023-02-18T07:56:38;99251.88;;;13.92;80.07
13765;BME280;6953;48.810;9.204;2023-02-18T07:59:04;99492.53;;;15.50;79.67
13765;BME280;6953;48.810;9.204;2023-02-18T08:01:30;99475.66;;;15.66;78.55
13765;BME280;6953;48.810;9.204;2023-02-18T08:03:55;99494.69;;;15.86;77.84
13765;BME280;6953;48.810;9.204;2023-02-18T08:06:42;99496.38;;;15.87;77.43
13765;BME280;6953;48.810;9.204;2023-02-18T08:09:07;99373.47;;;15.08;77.35
13765;BME280;6953;48.810;9.204;2023-02-18T08:11:33;99509.09;;;15.81;77.39
13765;BME280;6953;48.810;9.204;2023-02-18T08:13:59;99250.59;;;14.28;77.06
13765;BME280;6953;48.810;9.204;2023-02-18T08:16:25;99504.69;;;15.67;77.70
13765;BME280;6953;48.810;9.204;2023-02-18T08:18:51;99478.47;;;15.63;77.39
13765;BME280;6953;48.810;9.204;2023-02-18T08:21:17;99530.03;;;15.85;76.80
13765;BME280;6953;48.810;9.204;2023-02-18T08:23:43;99282.03;;;14.62;76.45
13765;BME280;6953;48.810;9.204;2023-02-18T08:26:09;99259.97;;;14.77;75.39
13765;BME280;6953;48.810;9.204;2023-02-18T08:28:35;99501.28;;;16.35;74.89
13765;BME280;6953;48.810;9.204;2023-02-18T08:31:00;99509.28;;;16.62;73.80
13765;BME280;6953;48.810;9.204;2023-02-18T08:33:26;99491.00;;;16.71;73.10
13765;BME280;6953;48.810;9.204;2023-02-18T08:35:53;99499.59;;;16.74;72.29
13765;BME280;6953;48.810;9.204;2023-02-18T08:38:19;99495.81;;;16.78;72.13
13765;BME280;6953;48.810;9.204;2023-02-18T08:40:45;99259.22;;;15.45;71.67
13765;BME280;6953;48.810;9.204;2023-02-18T08:43:11;99490.09;;;16.84;71.56
13765;BME280;6953;48.810;9.204;2023-02-18T08:45:38;99492.72;;;16.98;70.16
13765;BME280;6953;48.810;9.204;2023-02-18T08:48:08;99501.16;;;17.17;68.97
13765;BME280;6953;48.810;9.204;2023-02-18T08:50:34;99436.91;;;17.00;68.23
13765;BME280;6953;48.810;9.204;2023-02-18T08:53:00;99485.31;;;17.55;67.47
13765;BME280;6953;48.810;9.204;2023-02-18T08:55:28;99488.66;;;17.71;66.19
13765;BME280;6953;48.810;9.204;2023-02-18T08:57:54;99482.81;;;17.78;65.63
13765;BME280;6953;48.810;9.204;2023-02-18T09:00:20;99510.59;;;17.85;65.16
13765;BME280;6953;48.810;9.204;2023-02-18T09:02:45;99439.69;;;17.62;64.54
13765;BME280;6953;48.810;9.204;2023-02-18T09:05:12;99481.50;;;18.21;64.10
13765;BME280;6953;48.810;9.204;2023-02-18T09:07:38;99466.59;;;18.67;61.86
13765;BME280;6953;48.810;9.204;2023-02-18T09:10:04;99469.41;;;19.12;60.41
13765;BME280;6953;48.810;9.204;2023-02-18T09:12:29;99277.75;;;18.34;58.72
13765;BME280;6953;48.810;9.204;2023-02-18T09:14:55;99476.25;;;19.72;57.61
13765;BME280;6953;48.810;9.204;2023-02-18T09:17:20;99473.38;;;19.97;55.34
13765;BME280;6953;48.810;9.204;2023-02-18T09:19:46;99484.41;;;20.69;53.61
13765;BME280;6953;48.810;9.204;2023-02-18T09:22:12;99373.72;;;21.26;49.97
13765;BME280;6953;48.810;9.204;2023-02-18T09:24:38;99460.59;;;22.51;47.06
13765;BME280;6953;48.810;9.204;2023-02-18T09:27:04;99263.56;;;21.04;47.29
13765;BME280;6953;48.810;9.204;2023-02-18T09:29:30;99460.78;;;22.00;47.38
13765;BME280;6953;48.810;9.204;2023-02-18T09:31:59;99465.72;;;22.04;47.36
13765;BME280;6953;48.810;9.204;2023-02-18T09:34:25;99456.41;;;22.28;45.84
13765;BME280;6953;48.810;9.204;2023-02-18T09:36:51;99448.09;;;22.61;45.36
13765;BME280;6953;48.810;9.204;2023-02-18T09:39:16;99473.22;;;22.40;45.41
13765;BME280;6953;48.810;9.204;2023-02-18T09:46:41;99238.44;;;20.14;48.07
13765;BME280;6953;48.810;9.204;2023-02-18T09:49:16;99467.94;;;21.38;48.19
13765;BME280;6953;48.810;9.204;2023-02-18T09:51:42;99257.63;;;19.75;49.67
13765;BME280;6953;48.810;9.204;2023-02-18T09:54:13;99446.41;;;20.34;51.21
13765;BME280;6953;48.810;9.204;2023-02-18T09:56:40;99378.81;;;19.91;51.98
13765;BME280;6953;48.810;9.204;2023-02-18T09:59:12;99197.50;;;18.63;52.73
13765;BME280;6953;48.810;9.204;2023-02-18T10:01:40;99146.38;;;18.14;53.48
13765;BME280;6953;48.810;9.204;2023-02-18T10:04:18;99433.53;;;19.85;53.87
13765;BME280;6953;48.810;9.204;2023-02-18T10:06:45;99455.88;;;20.05;53.75
13765;BME280;6953;48.810;9.204;2023-02-18T10:09:24;99413.31;;;19.93;53.14
13765;BME280;6953;48.810;9.204;2023-02-18T10:11:59;99463.34;;;19.89;53.52
13765;BME280;6953;48.810;9.204;2023-02-18T10:14:27;99433.13;;;19.45;54.69
13765;BME280;6953;48.810;9.204;2023-02-18T10:16:54;99453.66;;;19.32;55.66
13765;BME280;6953;48.810;9.204;2023-02-18T10:19:28;99397.94;;;18.84;56.09
13765;BME280;6953;48.810;9.204;2023-02-18T10:21:56;99458.56;;;19.15;56.60
13765;BME280;6953;48.810;9.204;2023-02-18T10:24:49;99408.97;;;18.90;56.27
13765;BME280;6953;48.810;9.204;2023-02-18T10:27:27;99457.16;;;19.09;56.92
13765;BME280;6953;48.810;9.204;2023-02-18T10:29:55;99477.00;;;19.29;56.60
13765;BME280;6953;48.810;9.204;2023-02-18T10:32:34;99462.53;;;19.44;55.69
13765;BME280;6953;48.810;9.204;2023-02-18T10:35:23;99464.00;;;19.48;55.34
13765;BME280;6953;48.810;9.204;2023-02-18T10:40:56;99421.91;;;19.64;54.65
13765;BME280;6953;48.810;9.204;2023-02-18T10:51:57;99450.69;;;19.48;54.49
13765;BME280;6953;48.810;9.204;2023-02-18T10:54:46;99207.84;;;18.33;54.25
13765;BME280;6953;48.810;9.204;2023-02-18T10:57:18;99470.47;;;19.78;53.91
13765;BME280;6953;48.810;9.204;2023-02-18T10:59:53;99436.47;;;19.92;53.57
13765;BME280;6953;48.810;9.204;2023-02-18T11:02:20;99446.75;;;19.97;52.71
13765;BME280;6953;48.810;9.204;2023-02-18T11:04:45;99452.31;;;19.94;52.80
13765;BME280;6953;48.810;9.204;2023-02-18T11:07:22;99460.91;;;19.87;53.22
13765;BME280;6953;48.810;9.204;2023-02-18T11:09:57;99221.38;;;18.41;53.07
13765;BME280;6953;48.810;9.204;2023-02-18T11:12:48;99429.66;;;19.67;53.44
13765;BME280;6953;48.810;9.204;2023-02-18T11:17:43;99435.56;;;19.70;52.56
13765;BME280;6953;48.810;9.204;2023-02-18T11:23:12;99427.94;;;19.66;52.46
13765;BME280;6953;48.810;9.204;2023-02-18T11:25:39;99404.81;;;19.55;52.10
13765;BME280;6953;48.810;9.204;2023-02-18T11:30:48;99174.31;;;18.76;50.50
13765;BME280;6953;48.810;9.204;2023-02-18T11:33:38;99391.66;;;19.76;50.33
13765;BME280;6953;48.810;9.204;2023-02-18T11:36:18;99408.34;;;19.67;50.66
13765;BME280;6953;48.810;9.204;2023-02-18T11:38:53;99436.06;;;19.64;50.51
13765;BME280;6953;48.810;9.204;2023-02-18T11:41:28;99391.25;;;19.47;50.60
13765;BME280;6953;48.810;9.204;2023-02-18T11:43:54;99394.06;;;19.57;49.76
13765;BME280;6953;48.810;9.204;2023-02-18T11:46:23;99386.41;;;19.52;50.14
13765;BME280;6953;48.810;9.204;2023-02-18T11:48:50;99383.78;;;19.63;50.17
13765;BME280;6953;48.810;9.204;2023-02-18T11:51:27;99392.97;;;19.70;50.02
13765;BME280;6953;48.810;9.204;2023-02-18T11:56:24;99365.97;;;19.86;48.16
13765;BME280;6953;48.810;9.204;2023-02-18T11:58:50;99196.56;;;18.86;48.48
13765;BME280;6953;48.810;9.204;2023-02-18T12:01:42;99382.22;;;19.93;47.85
13765;BME280;6953;48.810;9.204;2023-02-18T12:04:15;99380.03;;;19.66;49.16
13765;BME280;6953;48.810;9.204;2023-02-18T12:09:42;99380.00;;;20.20;47.06
13765;BME280;6953;48.810;9.204;2023-02-18T12:12:25;99402.56;;;20.16;47.32
13765;BME280;6953;48.810;9.204;2023-02-18T12:14:53;99300.63;;;19.49;48.25
13765;BME280;6953;48.810;9.204;2023-02-18T12:20:40;99367.91;;;19.62;49.43
13765;BME280;6953;48.810;9.204;2023-02-18T12:23:28;99358.69;;;19.44;49.91
13765;BME280;6953;48.810;9.204;2023-02-18T12:34:00;99306.88;;;19.91;47.35
13765;BME280;6953;48.810;9.204;2023-02-18T12:50:59;99352.47;;;20.42;45.62
13765;BME280;6953;48.810;9.204;2023-02-18T12:53:33;99190.53;;;19.17;46.87
13765;BME280;6953;48.810;9.204;2023-02-18T13:13:16;99354.22;;;20.21;46.87
13765;BME280;6953;48.810;9.204;2023-02-18T13:15:49;99357.00;;;20.19;47.25
13765;BME280;6953;48.810;9.204;2023-02-18T13:18:46;99344.69;;;19.96;47.54
13765;BME280;6953;48.810;9.204;2023-02-18T13:21:16;99328.44;;;19.78;47.94
13765;BME280;6953;48.810;9.204;2023-02-18T13:24:01;99361.13;;;19.58;48.79
13765;BME280;6953;48.810;9.204;2023-02-18T13:26:31;99257.41;;;19.01;50.17
13765;BME280;6953;48.810;9.204;2023-02-18T13:29:14;99308.00;;;19.23;50.14
13765;BME280;6953;48.810;9.204;2023-02-18T13:32:08;99331.06;;;19.12;50.46
13765;BME280;6953;48.810;9.204;2023-02-18T13:35:04;99305.97;;;18.82;51.49
13765;BME280;6953;48.810;9.204;2023-02-18T13:40:20;99314.00;;;18.35;53.31
13765;BME280;6953;48.810;9.204;2023-02-18T13:42:50;99340.78;;;18.32;53.71
13765;BME280;6953;48.810;9.204;2023-02-18T13:45:30;99325.91;;;18.53;53.08
13765;BME280;6953;48.810;9.204;2023-02-18T13:47:57;99254.78;;;18.33;52.27
13765;BME280;6953;48.810;9.204;2023-02-18T13:50:28;99250.22;;;18.35;52.42
13765;BME280;6953;48.810;9.204;2023-02-18T13:55:39;99310.41;;;18.81;51.34
13765;BME280;6953;48.810;9.204;2023-02-18T13:58:14;99300.72;;;18.80;50.97
13765;BME280;6953;48.810;9.204;2023-02-18T14:00:50;99213.75;;;18.13;51.80
13765;BME280;6953;48.810;9.204;2023-02-18T14:03:53;99305.41;;;18.31;52.46
13765;BME280;6953;48.810;9.204;2023-02-18T14:08:46;99266.81;;;18.49;51.88
13765;BME280;6953;48.810;9.204;2023-02-18T14:17:48;99280.78;;;18.75;51.36
13765;BME280;6953;48.810;9.204;2023-02-18T14:19:41;99166.41;;;18.07;50.44
13765;BME280;6953;48.810;9.204;2023-02-18T14:22:47;99275.47;;;18.85;50.63
13765;BME280;6953;48.810;9.204;2023-02-18T14:25:21;99282.34;;;18.77;50.82
13765;BME280;6953;48.810;9.204;2023-02-18T14:27:52;99210.06;;;18.27;51.75
13765;BME280;6953;48.810;9.204;2023-02-18T14:32:49;99250.53;;;18.54;52.12
13765;BME280;6953;48.810;9.204;2023-02-18T14:35:37;99217.53;;;18.45;51.70
13765;BME280;6953;48.810;9.204;2023-02-18T14:51:34;99259.88;;;18.70;52.30
13765;BME280;6953;48.810;9.204;2023-02-18T14:54:05;99035.34;;;17.40;51.99
13765;BME280;6953;48.810;9.204;2023-02-18T14:56:36;99290.50;;;18.97;51.93
13765;BME280;6953;48.810;9.204;2023-02-18T14:59:03;99184.38;;;18.38;51.63
13765;BME280;6953;48.810;9.204;2023-02-18T15:01:32;99030.75;;;17.31;52.75
13765;BME280;6953;48.810;9.204;2023-02-18T15:03:59;99269.34;;;18.51;53.84
13765;BME280;6953;48.810;9.204;2023-02-18T15:06:29;99268.59;;;18.38;54.51
13765;BME280;6953;48.810;9.204;2023-02-18T15:08:56;99271.31;;;18.25;54.17
13765;BME280;6953;48.810;9.204;2023-02-18T15:11:29;99276.81;;;18.22;54.07
13765;BME280;6953;48.810;9.204;2023-02-18T15:13:58;99223.38;;;18.03;53.88
13765;BME280;6953;48.810;9.204;2023-02-18T15:16:29;99268.00;;;18.45;53.53
13765;BME280;6953;48.810;9.204;2023-02-18T15:18:59;99306.69;;;18.49;53.32
13765;BME280;6953;48.810;9.204;2023-02-18T15:21:38;99312.91;;;18.37;53.62
13765;BME280;6953;48.810;9.204;2023-02-18T15:24:31;99072.72;;;17.01;54.38
13765;BME280;6953;48.810;9.204;2023-02-18T15:27:03;99292.06;;;18.08;55.24
13765;BME280;6953;48.810;9.204;2023-02-18T15:29:34;99044.56;;;16.52;56.50
13765;BME280;6953;48.810;9.204;2023-02-18T15:32:00;99291.69;;;17.66;57.61
13765;BME280;6953;48.810;9.204;2023-02-18T15:34:38;99218.41;;;17.15;58.28
13765;BME280;6953;48.810;9.204;2023-02-18T15:37:07;99285.47;;;17.42;58.75